Hanna, IN (46340)

6:28 PM CDT on July 21, 2017 (GMT -0500)
Kingsford Heights | | Change Station
Active Advisory: Severe Thunderstorm Watch

Elev 732 ft 41.48 °N, 86.69 °W | Updated 33 seconds ago

Clear
Clear
83.2 °F
Feels Like 90 °F
N
0.0
Wind Variable Wind from WNW

Today
High -- | Low -- °F
--% Chance of Precip.
Yesterday
High -- | Low -- °F
Precip. -- in
Pressure 29.92 in
Visibility 10.0 miles
Clouds Clear
Heat Index 90 °F
Dew Point 74 °F
Humidity 74%
Rainfall 0.00 in
Snow Depth Not available.
5:32 AM 8:14 PM
Waning Crescent, 3% visible
METAR KOXI 212315Z AUTO 16004KT 10SM CLR 28/23 A2992 RMK AO1
Pressure 29.92 in
Visibility 10.0 miles
Clouds Clear
Heat Index 90 °F
Dew Point 74 °F
Humidity 74%
Rainfall 0.00 in
Snow Depth Not available.
5:32 AM 8:14 PM
Waning Crescent, 3% visible
METAR KOXI 212315Z AUTO 16004KT 10SM CLR 28/23 A2992 RMK AO1

Get Your Daily Forecast Email!

Thanks for signing up!

Be on the lookout for a verification email in your inbox.

You'll start receiving severe weather alerts in your inbox..

×

10-Day Weather Forecast

Almanac

Astronomy

Jul. 21, 2017 Rise Set
Actual Time
Civil Twilight
Nautical Twilight
Astronomical Twilight
Moon
Length of Visible Light
Length of Day
Tomorrow will be .
, % of the Moon is Illuminated

Today's Extremes

State Highs State Lows

Community

WunderPhotos

Category 6

Welcome to Category 6. This is the collective home for Weather Underground's featured writeups by Dr. Jeff Masters (right), Bob Henson (left), Chris Burt, and other regular contributors.

Nearby

Air Quality

  Air Quality AQ Index Pollutant
Not available.

Snow Depth

Station Depth Elevation

Earthquake Activity

City Distance Mag. Time & Date
Minimum magnitude displayed is 2.5.

Coastal Water Temperatures

Place Temperature

Stations

Nearby Weather Stations

Station Location Temp. Windchill Dew Point Humidity Wind Precip. Elev Updated Type
                   

Watches & Warnings

Severe Thunderstorm Watch
Issued: 6:24 PM CDT Jul. 21, 2017 – National Weather Service

Severe Thunderstorm Watch 429 remains in effect until 1200 am CDT

In
. Indiana counties included are

Benton Cass Fulton
Jasper Lake La Porte
Marshall Newton Porter
Pulaski St. Joseph Starke
white